"WATCHING THE WEATHER TO PROTECT LIFE AND PROPERTY"


THERE ARE CURRENTLY NO WATCHES NOR WARNINGS


Aviation
Satellite (InfraRed)


KFLL 042125Z 19007KT 10SM TS BKN024CB BKN044 BKN100 BKN250 30/24 A2989 RMK AO2 LTG DSNT N AND NW RAE2056 FRQ LTGICCG N-NE TS N-NE MOV NE CB OHD MOV NE CB DSNT SW-NW P0000 T03000244
KMCO 042131Z 30005KT 10SM -RA SCT065 BKN120 BKN250 24/22 A2995 RMK AO2 LTG DSNT NE-S TSE25 CB DSNT NE-SW P0002 T02440222
KMIA 042053Z 20010KT 10SM FEW040 FEW100 BKN250 33/23 A2992 RMK AO2 LTG DSNT N AND NW SLP130 CB DSNT SW AND NW-N MOV NE T03330228 56016 $
KTPA 042124Z 28006KT 10SM FEW033TCU OVC340 28/20 A2991 RMK AO2 PK WND 25027/2056 TSE24 TCU N-S T02830200
MDPP 042100Z 10012KT 9999 SCT020 32/26 Q1012
MDSD 042100Z 16005KT 9999 TS FEW020CB SCT022 31/23 Q1013 CB/NE//W/NW
MKJS 042100Z 07016KT 9999 FEW024 32/26 Q1012
MTPP 042053Z 31011KT 8000 SCT028CB BKN070 32/24 Q1012 A2989 RMK
MUHA 042055Z 09004KT 9999 FEW018TCU BKN050 26/23 Q1015
MYNN 042100Z 21004KT 180V280 9999 VCSH SCT018CB SCT025 BKN200 31/23 A2995
TAPA 042100Z 09009KT 050V150 9999 FEW020 29/22 Q1014 NOSIG
TFFF 042130Z AUTO 09009KT 9999 // ////// 28/23 Q1012
TFFR 042130Z AUTO 09011KT 060V140 9999 BKN033/// BKN042/// 30/22 Q1013 TEMPO 3000 SHRA SCT020TCU
TIST 042053Z VRB05KT 10SM SCT030 SCT040 30/24 A2995 RMK AO2 SLP141 60005 T03000239 55012 $
TISX 042053Z 10010KT 10SM SCT023 BKN080 29/23 A2995 RMK AO2 RAB10E19 SLP141 P0000 60006 T02940233 56010
TJSJ 042056Z 06018G24KT 9SM FEW028 SCT040 31/24 A2995 RMK AO2 SLP140 HZ ALQDS T03060244 55010
TKPK 042000Z 08010KT 9999 FEW016CB SCT022 SCT046 29/23 Q1014
TNCA 042100Z 08018KT 9999 FEW020 31/24 Q1010 NOSIG
TNCB 042055Z 08015KT 050V110 9999 FEW020 30/24 Q1010
TNCC 042100Z AUTO 09009KT 9999 FEW024 30/24 Q1011
TNCE 042055Z AUTO 08012KT 040V110 //// // ///////// 29/22 Q1014 RE//
TNCM 042100Z 07010KT 9999 FEW020 31/22 Q1015 NOSIG RMK CB TOP-OVHD
TQPF 042100Z 09012KT 9999 FEW020 29/21 Q1015
TUPJ 042100Z 08011KT 10SM VCSH SCT019 31/24 A2996 RMK Q1014 VIS16KM VCSH S